createdAt,value
2018-09-06T00:02:05.872Z,60.30
2018-09-06T00:04:35.577Z,61.20
2018-09-06T00:07:05.240Z,60.82
2018-09-06T00:09:34.902Z,60.41
2018-09-06T00:12:04.607Z,61.10
2018-09-06T00:14:34.261Z,61.64
2018-09-06T00:17:03.973Z,61.59
2018-09-06T00:19:33.681Z,60.93
2018-09-06T00:22:03.401Z,61.01
2018-09-06T00:24:33.062Z,62.02
2018-09-06T00:27:02.740Z,61.35
2018-09-06T00:29:32.453Z,61.83
2018-09-06T00:32:02.132Z,62.01
2018-09-06T00:34:31.781Z,61.73
2018-09-06T00:37:01.498Z,62.38
2018-09-06T00:39:31.161Z,62.59
2018-09-06T00:42:00.861Z,63.21
2018-09-06T00:44:30.572Z,62.41
2018-09-06T00:47:00.236Z,63.30
2018-09-06T00:49:29.935Z,63.30
2018-09-06T00:51:59.647Z,63.25
2018-09-06T00:54:29.512Z,62.82
2018-09-06T00:56:59.300Z,63.15
2018-09-06T00:59:28.942Z,62.42
2018-09-06T01:01:58.619Z,62.36
2018-09-06T01:04:28.288Z,63.09
2018-09-06T01:06:57.920Z,63.20
2018-09-06T01:09:27.604Z,63.26
2018-09-06T01:11:57.253Z,63.40
2018-09-06T01:14:26.936Z,62.72
2018-09-06T01:16:56.596Z,63.35
2018-09-06T01:19:26.304Z,63.40
2018-09-06T01:21:55.968Z,62.73
2018-09-06T01:24:25.624Z,63.62
2018-09-06T01:26:55.318Z,63.00
2018-09-06T01:29:24.976Z,63.01
2018-09-06T01:31:54.688Z,62.96
2018-09-06T01:34:24.342Z,63.71
2018-09-06T01:36:54.085Z,63.53
2018-09-06T01:39:23.738Z,64.34
2018-09-06T01:41:53.469Z,64.49
2018-09-06T01:44:23.344Z,64.79
2018-09-06T01:46:53.008Z,64.39
2018-09-06T01:49:22.656Z,64.97
2018-09-06T01:51:52.376Z,65.05
2018-09-06T01:54:22.020Z,65.80
2018-09-06T01:56:51.697Z,65.64
2018-09-06T01:59:21.452Z,65.57
2018-09-06T02:01:51.084Z,65.10
2018-09-06T02:04:20.873Z,65.24
2018-09-06T02:06:50.605Z,64.88
2018-09-06T02:09:20.260Z,65.55
2018-09-06T02:11:49.996Z,66.20
2018-09-06T02:14:19.741Z,66.05
2018-09-06T02:16:49.558Z,66.72
2018-09-06T02:19:19.300Z,66.17
2018-09-06T02:21:49.057Z,66.46
2018-09-06T02:24:18.771Z,67.52
2018-09-06T02:26:48.784Z,66.57
2018-09-06T02:29:18.436Z,67.50
2018-09-06T02:31:48.120Z,66.86
2018-09-06T02:34:17.756Z,67.46
2018-09-06T02:36:47.456Z,66.66
2018-09-06T02:39:17.109Z,67.17
2018-09-06T02:41:46.912Z,66.92
2018-09-06T02:44:16.557Z,66.72
2018-09-06T02:46:46.325Z,67.34
2018-09-06T02:49:16.092Z,67.64
2018-09-06T02:51:45.735Z,67.03
2018-09-06T02:54:15.442Z,66.93
2018-09-06T02:56:45.110Z,67.33
2018-09-06T02:59:14.792Z,67.56
2018-09-06T03:01:44.436Z,67.43
2018-09-06T03:04:14.136Z,68.40
2018-09-06T03:06:43.796Z,68.35
2018-09-06T03:09:13.467Z,68.90
2018-09-06T03:11:48.423Z,69.50
2018-09-06T03:14:18.160Z,68.35
2018-09-06T03:16:47.852Z,68.61
2018-09-06T03:19:17.572Z,68.70
2018-09-06T03:21:47.295Z,69.30
2018-09-06T03:24:17.201Z,68.76
2018-09-06T03:26:46.883Z,68.54
2018-09-06T03:29:16.532Z,68.97
2018-09-06T03:31:46.224Z,68.48
2018-09-06T03:34:15.984Z,68.72
2018-09-06T03:36:45.729Z,69.32
2018-09-06T03:39:15.418Z,69.63
2018-09-06T03:41:45.112Z,68.72
2018-09-06T03:44:14.776Z,70.62
2018-09-06T03:46:44.539Z,70.96
2018-09-06T03:49:14.260Z,70.12
2018-09-06T03:51:43.916Z,71.24
2018-09-06T03:54:13.585Z,70.85
2018-09-06T03:56:43.261Z,70.69
2018-09-06T03:59:13.017Z,70.43
2018-09-06T04:01:42.677Z,70.57
2018-09-06T04:04:12.321Z,70.17
2018-09-06T04:06:42.004Z,70.72
2018-09-06T04:09:12.128Z,71.71
2018-09-06T04:11:42.688Z,71.28
2018-09-06T04:14:12.351Z,72.09
2018-09-06T04:16:42.049Z,71.67
2018-09-06T04:19:11.719Z,71.08
2018-09-06T04:21:41.520Z,71.28
2018-09-06T04:24:11.254Z,70.55
2018-09-06T04:26:40.923Z,70.67
2018-09-06T04:29:10.588Z,70.88
2018-09-06T04:31:40.284Z,70.37
2018-09-06T04:34:09.977Z,70.87
2018-09-06T04:36:39.714Z,70.80
2018-09-06T04:39:11.199Z,71.17
2018-09-06T04:41:40.872Z,71.72
2018-09-06T04:44:10.645Z,71.53
2018-09-06T04:46:40.395Z,71.58
2018-09-06T04:49:10.057Z,71.30
2018-09-06T04:51:39.733Z,71.91
2018-09-06T04:54:09.429Z,71.58
2018-09-06T04:56:39.122Z,71.79
2018-09-06T04:59:08.808Z,72.42
2018-09-06T05:01:38.596Z,72.76
2018-09-06T05:04:08.555Z,72.60
2018-09-06T05:06:38.288Z,72.48
2018-09-06T05:09:09.867Z,72.95
2018-09-06T05:11:40.698Z,72.57
2018-09-06T05:14:10.550Z,72.88
2018-09-06T05:16:40.260Z,72.79
2018-09-06T05:19:09.924Z,73.38
2018-09-06T05:21:39.600Z,73.39
2018-09-06T05:24:09.487Z,72.40
2018-09-06T05:26:39.175Z,72.07
2018-09-06T05:29:08.893Z,72.65
2018-09-06T05:31:38.592Z,72.37
2018-09-06T05:34:08.300Z,72.11
2018-09-06T05:36:38.003Z,72.34
2018-09-06T05:39:10.906Z,72.14
2018-09-06T05:41:41.170Z,72.83
2018-09-06T05:44:11.538Z,71.99
2018-09-06T05:46:41.797Z,72.54
2018-09-06T05:49:11.518Z,72.09
2018-09-06T05:51:41.183Z,71.93
2018-09-06T05:54:10.891Z,71.70
2018-09-06T05:56:40.636Z,71.39
2018-09-06T05:59:10.307Z,71.41
2018-09-06T06:01:40.005Z,71.38
2018-09-06T06:04:09.680Z,70.98
2018-09-06T06:06:39.380Z,71.30
2018-09-06T06:09:09.687Z,70.92
2018-09-06T06:11:39.443Z,70.54
2018-09-06T06:14:09.158Z,70.39
2018-09-06T06:16:38.901Z,70.76
2018-09-06T06:19:08.580Z,70.57
2018-09-06T06:21:38.323Z,70.20
2018-09-06T06:24:08.031Z,69.05
2018-09-06T06:26:37.699Z,69.42
2018-09-06T06:29:07.760Z,69.27
2018-09-06T06:31:37.420Z,70.03
2018-09-06T06:34:07.282Z,69.62
2018-09-06T06:36:36.934Z,69.33
2018-09-06T06:39:09.486Z,69.29
2018-09-06T06:41:39.847Z,68.59
2018-09-06T06:44:09.846Z,67.82
2018-09-06T06:46:39.559Z,67.88
2018-09-06T06:49:09.230Z,67.54
2018-09-06T06:51:38.941Z,67.89
2018-09-06T06:54:08.694Z,68.14
2018-09-06T06:56:38.436Z,66.82
2018-09-06T06:59:08.132Z,66.56
2018-09-06T07:01:37.808Z,65.44
2018-09-06T07:04:07.581Z,63.77
2018-09-06T07:06:37.245Z,63.66
2018-09-06T07:09:09.356Z,62.43
2018-09-06T07:11:39.040Z,63.25
2018-09-06T07:14:08.708Z,63.03
2018-09-06T07:16:38.400Z,62.84
2018-09-06T07:19:08.067Z,62.79
2018-09-06T07:21:37.819Z,63.48
2018-09-06T07:24:07.501Z,61.93
2018-09-06T07:26:37.228Z,62.53
2018-09-06T07:29:07.012Z,61.53
2018-09-06T07:31:36.718Z,61.34
2018-09-06T07:34:06.471Z,60.62
2018-09-06T07:36:36.165Z,60.58
2018-09-06T07:39:08.540Z,59.86
2018-09-06T07:41:38.200Z,60.41
2018-09-06T07:44:07.996Z,59.09
2018-09-06T07:46:37.699Z,59.15
2018-09-06T07:49:07.443Z,58.61
2018-09-06T07:51:37.136Z,57.89
2018-09-06T07:54:06.816Z,57.85
2018-09-06T07:56:36.528Z,58.06
2018-09-06T07:59:06.248Z,58.47
2018-09-06T08:01:35.934Z,57.70
2018-09-06T08:04:05.753Z,57.38
2018-09-06T08:06:35.432Z,57.11
2018-09-06T08:09:07.168Z,55.76
2018-09-06T08:11:37.049Z,55.44
2018-09-06T08:14:06.764Z,54.70
2018-09-06T08:16:36.789Z,54.96
2018-09-06T08:19:06.468Z,54.85
2018-09-06T08:21:36.173Z,53.58
2018-09-06T08:24:05.855Z,53.23
2018-09-06T08:26:35.564Z,53.33
2018-09-06T08:29:05.268Z,53.36
2018-09-06T08:31:35.071Z,52.43
2018-09-06T08:34:04.763Z,51.77
2018-09-06T08:36:34.470Z,51.34
2018-09-06T08:39:05.438Z,50.71
2018-09-06T08:41:35.117Z,51.05
2018-09-06T08:44:04.768Z,51.03
2018-09-06T08:46:34.531Z,50.43
2018-09-06T08:49:04.232Z,50.97
2018-09-06T08:51:34.133Z,50.37
2018-09-06T08:54:03.832Z,49.69
2018-09-06T08:56:33.541Z,50.90
2018-09-06T08:59:03.297Z,49.17
2018-09-06T09:01:39.920Z,48.48
2018-09-06T09:04:10.041Z,49.67
2018-09-06T09:06:40.092Z,49.04
2018-09-06T09:09:13.144Z,49.34
2018-09-06T09:11:42.905Z,47.92
2018-09-06T09:14:12.610Z,48.96
2018-09-06T09:16:42.484Z,47.77
2018-09-06T09:19:12.145Z,47.51
2018-09-06T09:21:41.928Z,48.70
2018-09-06T09:24:11.503Z,47.75
2018-09-06T09:26:41.257Z,47.14
2018-09-06T09:29:10.948Z,46.97
2018-09-06T09:31:40.668Z,47.31
2018-09-06T09:34:10.387Z,46.76
2018-09-06T09:36:40.072Z,46.79
2018-09-06T09:39:10.518Z,47.06
2018-09-06T09:41:40.256Z,45.92
2018-09-06T09:44:09.964Z,46.65
2018-09-06T09:49:08.401Z,46.53
2018-09-06T09:51:38.180Z,46.09
2018-09-06T09:54:08.063Z,46.79
2018-09-06T09:56:37.745Z,45.09
2018-09-06T09:59:07.488Z,44.59
2018-09-06T10:01:43.860Z,43.77
2018-09-06T10:04:18.649Z,44.85
2018-09-06T10:06:53.424Z,44.35
2018-09-06T10:09:24.964Z,43.73
2018-09-06T10:11:54.688Z,44.64
2018-09-06T10:14:24.407Z,43.02
2018-09-06T10:16:54.075Z,43.27
2018-09-06T10:19:23.852Z,43.83
2018-09-06T10:21:53.516Z,43.12
2018-09-06T10:24:23.239Z,42.78
2018-09-06T10:26:53.069Z,43.26
2018-09-06T10:29:22.782Z,42.60
2018-09-06T10:31:52.488Z,42.81
2018-09-06T10:34:22.250Z,42.52
2018-09-06T10:36:51.992Z,42.93
2018-09-06T10:39:21.854Z,43.46
2018-09-06T10:41:51.502Z,41.51
2018-09-06T10:44:21.208Z,42.68
2018-09-06T10:46:50.872Z,41.49
2018-09-06T10:49:20.573Z,42.59
2018-09-06T10:51:50.256Z,41.96
2018-09-06T10:54:19.945Z,41.65
2018-09-06T10:56:49.620Z,40.50
2018-09-06T10:59:19.360Z,40.85
2018-09-06T11:01:49.088Z,41.19
2018-09-06T11:04:18.901Z,39.93
2018-09-06T11:06:48.636Z,39.92
2018-09-06T11:09:18.408Z,39.08
2018-09-06T11:11:48.093Z,39.39
2018-09-06T11:14:17.768Z,40.06
2018-09-06T11:16:47.508Z,39.50
2018-09-06T11:19:17.260Z,39.82
2018-09-06T11:21:47.100Z,39.26
2018-09-06T11:24:16.625Z,38.30
2018-09-06T11:26:46.272Z,37.73
2018-09-06T11:29:15.941Z,37.28
2018-09-06T11:31:45.625Z,37.64
2018-09-06T11:34:15.384Z,36.72
2018-09-06T11:36:45.052Z,36.67
2018-09-06T11:39:14.800Z,37.65
2018-09-06T11:41:44.560Z,36.35
2018-09-06T11:44:14.332Z,37.28
2018-09-06T11:46:44.073Z,36.93
2018-09-06T11:49:13.773Z,35.80
2018-09-06T11:51:43.533Z,36.55
2018-09-06T11:54:13.228Z,36.46
2018-09-06T11:56:42.904Z,36.79
2018-09-06T11:59:12.652Z,36.00
2018-09-06T12:01:42.376Z,37.01
2018-09-06T12:04:12.192Z,36.08
2018-09-06T12:06:41.904Z,36.17
2018-09-06T12:09:11.661Z,37.28
2018-09-06T12:11:41.346Z,35.64
2018-09-06T12:14:11.064Z,35.25
2018-09-06T12:16:40.716Z,35.12
2018-09-06T12:19:10.434Z,35.92
2018-09-06T12:21:40.097Z,36.28
2018-09-06T12:24:09.790Z,37.00
2018-09-06T12:26:39.456Z,36.50
2018-09-06T12:29:09.192Z,35.92
2018-09-06T12:31:38.824Z,36.96
2018-09-06T12:34:08.613Z,36.24
2018-09-06T12:36:38.265Z,37.08
2018-09-06T12:39:09.273Z,36.90
2018-09-06T12:41:39.575Z,37.53
2018-09-06T12:44:09.603Z,36.69
2018-09-06T12:46:39.288Z,36.93
2018-09-06T12:49:08.988Z,37.41
2018-09-06T12:51:38.720Z,37.25
2018-09-06T12:54:08.474Z,36.69
2018-09-06T12:56:38.292Z,36.27
2018-09-06T12:59:08.003Z,36.95
2018-09-06T13:01:37.656Z,37.15
2018-09-06T13:04:07.444Z,36.78
2018-09-06T13:06:37.093Z,37.23
2018-09-06T13:09:07.420Z,37.19
2018-09-06T13:11:37.544Z,37.50
2018-09-06T13:14:07.256Z,38.73
2018-09-06T13:16:36.913Z,37.71
2018-09-06T13:19:06.636Z,37.38
2018-09-06T13:21:36.388Z,38.13
2018-09-06T13:24:06.080Z,38.52
2018-09-06T13:26:35.761Z,38.35
2018-09-06T13:29:05.536Z,38.02
2018-09-06T13:31:35.276Z,37.51
2018-09-06T13:34:05.028Z,37.55
2018-09-06T13:36:34.676Z,38.27
2018-09-06T13:39:06.267Z,38.00
2018-09-06T13:41:35.963Z,38.37
2018-09-06T13:44:05.677Z,38.31
2018-09-06T13:46:35.452Z,38.17
2018-09-06T13:49:05.136Z,38.34
2018-09-06T13:51:34.800Z,38.48
2018-09-06T13:54:04.495Z,38.42
2018-09-06T13:56:34.136Z,38.76
2018-09-06T13:59:03.888Z,38.70
2018-09-06T14:01:33.844Z,40.68
2018-09-06T14:04:03.587Z,41.49
2018-09-06T14:06:33.313Z,42.58
2018-09-06T14:09:03.048Z,44.12
2018-09-06T14:11:32.672Z,44.45
2018-09-06T14:14:02.372Z,45.75
2018-09-06T14:16:32.111Z,46.17
2018-09-06T14:19:01.803Z,45.77
2018-09-06T14:21:31.449Z,46.24
2018-09-06T14:24:01.145Z,47.17
2018-09-06T14:26:30.845Z,47.92
2018-09-06T14:29:00.528Z,50.24
2018-09-06T14:31:30.256Z,50.18
2018-09-06T14:33:59.916Z,51.81
2018-09-06T14:36:29.586Z,52.31
2018-09-06T14:38:59.596Z,50.78
2018-09-06T14:41:29.365Z,51.84
2018-09-06T14:43:59.056Z,51.65
2018-09-06T14:46:28.892Z,52.07
2018-09-06T14:48:58.561Z,52.38
2018-09-06T14:51:28.204Z,52.97
2018-09-06T14:53:57.859Z,53.26
2018-09-06T14:56:27.594Z,54.23
2018-09-06T14:58:57.282Z,54.32
2018-09-06T15:01:27.003Z,53.08
2018-09-06T15:03:56.677Z,53.36
2018-09-06T15:06:26.333Z,53.74
2018-09-06T15:08:56.016Z,53.42
2018-09-06T15:11:25.667Z,52.76
2018-09-06T15:13:55.369Z,53.92
2018-09-06T15:16:25.042Z,53.61
2018-09-06T15:18:54.720Z,54.35
2018-09-06T15:21:24.437Z,54.37
2018-09-06T15:23:54.103Z,54.97
2018-09-06T15:26:23.785Z,54.80
2018-09-06T15:28:53.507Z,55.24
2018-09-06T15:31:23.173Z,54.48
2018-09-06T15:33:52.868Z,54.40
2018-09-06T15:36:22.531Z,55.22
2018-09-06T15:38:52.366Z,54.48
2018-09-06T15:41:22.140Z,54.54
2018-09-06T15:43:51.888Z,54.32
2018-09-06T15:46:21.668Z,54.49
2018-09-06T15:48:51.388Z,54.93
2018-09-06T15:51:21.350Z,54.76
2018-09-06T15:53:51.028Z,54.99
2018-09-06T15:56:20.696Z,55.31
2018-09-06T15:58:50.377Z,55.04
2018-09-06T16:01:20.025Z,55.04
2018-09-06T16:03:49.727Z,54.98
2018-09-06T16:06:19.473Z,55.47
2018-09-06T16:08:49.156Z,55.92
2018-09-06T16:11:18.904Z,56.15
2018-09-06T16:13:48.628Z,56.56
2018-09-06T16:16:18.483Z,56.28
2018-09-06T16:18:48.252Z,57.17
2018-09-06T16:21:17.905Z,57.04
2018-09-06T16:23:47.600Z,56.67
2018-09-06T16:26:17.328Z,57.33
2018-09-06T16:28:47.008Z,58.05
2018-09-06T16:31:16.685Z,58.47
2018-09-06T16:33:46.394Z,57.67
2018-09-06T16:36:16.052Z,57.70
2018-09-06T16:38:45.772Z,56.79
2018-09-06T16:41:15.449Z,57.06
2018-09-06T16:43:45.474Z,58.02
2018-09-06T16:46:15.134Z,57.21
2018-09-06T16:48:44.897Z,57.31
2018-09-06T16:51:14.716Z,57.30
2018-09-06T16:53:44.385Z,57.19
2018-09-06T16:56:14.072Z,57.85
2018-09-06T16:58:43.736Z,58.43
2018-09-06T17:01:13.534Z,57.92
2018-09-06T17:03:43.175Z,59.06
2018-09-06T17:06:12.871Z,60.27
2018-09-06T17:08:42.537Z,60.42
2018-09-06T17:11:12.232Z,61.59
2018-09-06T17:13:41.909Z,64.69
2018-09-06T17:16:11.665Z,67.66
2018-09-06T17:18:41.381Z,68.22
2018-09-06T17:21:11.112Z,68.08
2018-09-06T17:23:41.209Z,68.42
2018-09-06T17:26:11.157Z,68.72
2018-09-06T17:28:40.857Z,69.99
2018-09-06T17:31:10.584Z,69.09
2018-09-06T17:33:40.272Z,70.66
2018-09-06T17:36:09.993Z,70.56
2018-09-06T17:38:39.753Z,70.16
2018-09-06T17:41:09.452Z,70.54
2018-09-06T17:43:39.140Z,70.40
2018-09-06T17:46:08.848Z,70.46
2018-09-06T17:48:38.729Z,70.52
2018-09-06T17:51:08.481Z,70.04
2018-09-06T17:53:38.172Z,71.00
2018-09-06T17:56:07.910Z,70.16
2018-09-06T17:58:37.596Z,71.28
2018-09-06T18:01:20.402Z,71.16
2018-09-06T18:03:50.186Z,70.14
2018-09-06T18:06:19.949Z,69.45
2018-09-06T18:08:49.712Z,72.15
2018-09-06T18:11:19.436Z,71.95
2018-09-06T18:13:49.245Z,71.66
2018-09-06T18:16:18.992Z,71.40
2018-09-06T18:18:48.764Z,72.02
2018-09-06T18:21:18.511Z,72.51
2018-09-06T18:23:48.262Z,72.39
2018-09-06T18:26:18.097Z,73.70
2018-09-06T18:28:47.823Z,73.28
2018-09-06T18:31:17.628Z,73.17
2018-09-06T18:33:47.357Z,74.73
2018-09-06T18:36:17.153Z,75.42
2018-09-06T18:38:47.787Z,75.65
2018-09-06T18:41:17.616Z,75.79
2018-09-06T18:43:47.343Z,75.48
2018-09-06T18:46:17.056Z,75.43
2018-09-06T18:48:46.776Z,75.54
2018-09-06T18:51:16.547Z,76.45
2018-09-06T18:53:46.294Z,77.49
2018-09-06T18:56:16.039Z,76.93
2018-09-06T18:58:45.772Z,76.72
2018-09-06T19:01:15.503Z,77.56
2018-09-06T19:03:45.207Z,78.41
2018-09-06T19:06:14.920Z,78.48
2018-09-06T19:08:44.616Z,77.59
2018-09-06T19:11:14.418Z,78.66
2018-09-06T19:13:44.115Z,79.06
2018-09-06T19:16:13.824Z,78.43
2018-09-06T19:18:43.560Z,79.35
2018-09-06T19:21:13.252Z,80.25
2018-09-06T19:23:42.928Z,79.77
2018-09-06T19:26:12.674Z,80.61
2018-09-06T19:28:42.380Z,81.65
2018-09-06T19:31:12.101Z,82.59
2018-09-06T19:33:41.797Z,82.46
2018-09-06T19:36:11.530Z,81.99
2018-09-06T19:38:41.239Z,81.62
2018-09-06T19:41:10.974Z,80.08
2018-09-06T19:43:40.693Z,81.47
2018-09-06T19:46:10.406Z,80.42
2018-09-06T19:48:40.218Z,80.53
2018-09-06T19:51:10.018Z,80.28
2018-09-06T19:53:39.809Z,80.54
2018-09-06T19:56:09.530Z,81.41
2018-09-06T19:58:39.224Z,80.98
2018-09-06T20:01:08.956Z,79.19
2018-09-06T20:03:38.650Z,78.54
2018-09-06T20:06:08.372Z,78.24
2018-09-06T20:08:38.073Z,78.04
2018-09-06T20:11:07.804Z,78.52
2018-09-06T20:13:37.548Z,78.03
2018-09-06T20:16:07.484Z,78.04
2018-09-06T20:18:37.184Z,78.77
2018-09-06T20:21:06.926Z,78.54
2018-09-06T20:23:36.621Z,78.18
2018-09-06T20:26:06.416Z,78.38
2018-09-06T20:28:36.254Z,78.61
2018-09-06T20:31:06.138Z,78.46
2018-09-06T20:33:35.864Z,78.60
2018-09-06T20:36:05.633Z,78.48
2018-09-06T20:38:35.354Z,78.67
2018-09-06T20:41:05.143Z,78.93
2018-09-06T20:43:34.961Z,79.20
2018-09-06T20:46:04.704Z,78.87
2018-09-06T20:48:34.485Z,79.97
2018-09-06T20:51:04.317Z,80.83
2018-09-06T20:53:34.356Z,79.31
2018-09-06T20:56:04.100Z,79.69
2018-09-06T20:58:33.797Z,80.79
2018-09-06T21:01:03.570Z,81.42
2018-09-06T21:03:33.266Z,80.92
2018-09-06T21:06:03.072Z,80.72
2018-09-06T21:08:32.804Z,79.93
2018-09-06T21:11:02.540Z,80.15
2018-09-06T21:13:32.220Z,79.53
2018-09-06T21:16:01.955Z,79.41
2018-09-06T21:18:31.946Z,80.21
2018-09-06T21:21:01.682Z,79.36
2018-09-06T21:23:31.393Z,79.95
2018-09-06T21:26:01.127Z,80.13
2018-09-06T21:28:30.898Z,79.54
2018-09-06T21:31:00.696Z,80.46
2018-09-06T21:33:30.388Z,80.35
2018-09-06T21:36:00.074Z,79.95
2018-09-06T21:38:29.773Z,80.00
2018-09-06T21:40:59.514Z,80.24
2018-09-06T21:43:29.308Z,79.99
2018-09-06T21:45:59.028Z,80.16
2018-09-06T21:48:28.744Z,80.31
2018-09-06T21:50:58.457Z,80.10
2018-09-06T21:53:28.144Z,80.77
2018-09-06T21:55:57.856Z,81.13
2018-09-06T21:58:27.640Z,81.73
2018-09-06T22:00:57.396Z,80.87
2018-09-06T22:03:32.298Z,81.98
2018-09-06T22:06:02.075Z,82.05
2018-09-06T22:08:31.806Z,81.71
2018-09-06T22:11:01.558Z,81.87
2018-09-06T22:13:31.283Z,81.81
2018-09-06T22:16:01.069Z,81.72
2018-09-06T22:18:30.805Z,81.54
2018-09-06T22:21:00.557Z,82.24
2018-09-06T22:23:30.252Z,81.42
2018-09-06T22:25:59.986Z,80.59
2018-09-06T22:28:29.653Z,81.67
2018-09-06T22:30:59.381Z,81.85
2018-09-06T22:33:29.079Z,81.38
2018-09-06T22:35:58.818Z,83.09
2018-09-06T22:38:28.476Z,83.25
2018-09-06T22:40:58.199Z,82.66
2018-09-06T22:43:27.913Z,82.47
2018-09-06T22:45:57.740Z,82.35
2018-09-06T22:48:27.436Z,81.10
2018-09-06T22:50:57.131Z,80.67
2018-09-06T22:53:26.828Z,82.42
2018-09-06T22:55:56.548Z,83.94
2018-09-06T22:58:26.332Z,83.11
2018-09-06T23:00:56.122Z,82.26
2018-09-06T23:03:30.794Z,82.55
2018-09-06T23:06:00.500Z,83.56
2018-09-06T23:08:30.216Z,83.79
2018-09-06T23:10:59.995Z,84.16
2018-09-06T23:13:29.759Z,85.61
2018-09-06T23:15:59.592Z,84.28
2018-09-06T23:18:29.317Z,84.90
2018-09-06T23:20:59.129Z,83.22
2018-09-06T23:23:28.914Z,83.40
2018-09-06T23:25:58.705Z,83.63
2018-09-06T23:28:28.435Z,82.85
2018-09-06T23:30:58.150Z,82.64
2018-09-06T23:33:27.906Z,84.13
2018-09-06T23:35:57.649Z,84.17
2018-09-06T23:38:27.450Z,83.90
2018-09-06T23:40:57.873Z,83.70
2018-09-06T23:43:28.096Z,84.53
2018-09-06T23:45:58.866Z,84.46
2018-09-06T23:48:29.774Z,84.12
2018-09-06T23:50:59.797Z,83.73
2018-09-06T23:53:29.697Z,83.53
2018-09-06T23:55:59.447Z,83.32
2018-09-06T23:58:29.138Z,82.80
